Time;durP1;ratioP1;P1;durP2;ratioP2;P2;SDS_P1;SDS_P2;PMS_P1;PMS_P2;Temp;Humidity;BMP_temperature;BMP_pressure;BME280_temperature;BME280_humidity;BME280_pressure;Samples;Min_cycle;Max_cycle;Signal;HPM_P1;HPM_P2
2022/06/17 00:00:55;;;;;;;7.90;7.40;;;18.40;96.20;;;;;;5115117;27;21003;-68
2022/06/17 00:03:23;;;;;;;8.30;7.80;;;18.40;96.10;;;;;;5135863;27;20803;-68
2022/06/17 00:05:50;;;;;;;8.60;7.90;;;18.30;96.00;;;;;;5126597;27;20434;-68
2022/06/17 00:08:19;;;;;;;8.77;7.83;;;18.30;96.20;;;;;;5112535;27;20464;-68
2022/06/17 00:10:45;;;;;;;7.97;7.37;;;18.30;96.30;;;;;;5113286;28;20430;-68
2022/06/17 00:13:13;;;;;;;8.07;7.57;;;18.30;96.50;;;;;;5133265;27;20435;-68
2022/06/17 00:15:39;;;;;;;7.80;7.20;;;18.30;96.30;;;;;;5133709;27;20439;-68
2022/06/17 00:18:05;;;;;;;8.03;7.30;;;18.30;96.30;;;;;;5104223;27;20871;-68
2022/06/17 00:20:33;;;;;;;8.30;7.60;;;18.20;96.30;;;;;;5110444;28;20241;-68
2022/06/17 00:22:59;;;;;;;8.10;7.50;;;18.10;96.40;;;;;;5114805;28;20221;-68
2022/06/17 00:25:32;;;;;;;8.63;8.03;;;18.00;96.50;;;;;;5124247;27;20432;-68
2022/06/17 00:27:59;;;;;;;7.70;7.10;;;18.00;96.60;;;;;;5131200;27;20295;-68
2022/06/17 00:30:27;;;;;;;7.43;6.93;;;18.00;97.00;;;;;;5113234;27;20822;-68
2022/06/17 00:33:00;;;;;;;7.20;6.67;;;18.00;97.10;;;;;;5093686;28;20461;-68
2022/06/17 00:35:30;;;;;;;7.53;6.93;;;18.00;97.10;;;;;;5094620;28;20418;-68
2022/06/17 00:37:56;;;;;;;7.17;6.70;;;17.90;96.80;;;;;;5130330;27;20431;-68
2022/06/17 00:40:26;;;;;;;7.13;6.63;;;17.90;97.20;;;;;;5128250;27;20436;-68
2022/06/17 00:42:52;;;;;;;7.83;7.23;;;17.90;97.20;;;;;;5128762;27;20400;-68
2022/06/17 00:45:28;;;;;;;7.90;7.40;;;17.90;97.00;;;;;;5096741;28;20894;-68
2022/06/17 00:48:18;;;;;;;7.70;7.20;;;17.90;97.10;;;;;;5125408;27;20622;-68
2022/06/17 00:51:06;;;;;;;7.30;6.80;;;17.80;97.20;;;;;;5110940;28;20429;-68
2022/06/17 00:53:39;;;;;;;6.80;6.30;;;17.80;97.40;;;;;;5113468;28;20886;-70
2022/06/17 00:56:13;;;;;;;7.30;6.90;;;17.80;97.20;;;;;;5113888;28;20858;-68
2022/06/17 00:58:57;;;;;;;6.67;6.07;;;17.80;97.20;;;;;;5111129;28;20422;-68
2022/06/17 01:01:23;;;;;;;7.00;6.50;;;17.80;97.30;;;;;;5113737;28;20413;-69
2022/06/17 01:03:53;;;;;;;7.17;6.70;;;17.70;97.20;;;;;;5112331;28;20924;-70
2022/06/17 01:06:23;;;;;;;7.60;7.00;;;17.70;97.30;;;;;;5132740;27;20523;-68
2022/06/17 01:11:41;;;;;;;7.20;6.70;;;17.70;97.70;;;;;;5092805;28;20407;-68
2022/06/17 01:14:09;;;;;;;7.30;6.70;;;17.70;97.90;;;;;;5096176;28;20426;-68
2022/06/17 01:16:38;;;;;;;6.87;6.30;;;17.60;98.10;;;;;;5112517;27;20828;-71
2022/06/17 01:19:32;;;;;;;7.00;6.50;;;17.70;97.50;;;;;;5117409;27;20430;-68
2022/06/17 01:22:22;;;;;;;7.20;6.70;;;17.50;97.40;;;;;;5124882;27;20448;-68
2022/06/17 01:24:49;;;;;;;7.27;6.87;;;17.50;97.60;;;;;;5119500;27;20441;-68
2022/06/17 01:27:18;;;;;;;6.93;6.30;;;17.50;98.10;;;;;;5110660;28;20771;-68
2022/06/17 01:29:43;;;;;;;7.70;7.00;;;17.50;98.40;;;;;;5101354;28;20476;-68
2022/06/17 01:32:10;;;;;;;7.37;6.93;;;17.50;98.60;;;;;;5112004;28;20441;-68
2022/06/17 01:34:36;;;;;;;7.30;6.80;;;17.50;98.20;;;;;;5118624;27;20573;-69
2022/06/17 01:37:02;;;;;;;7.70;7.17;;;17.50;98.10;;;;;;5128279;27;20541;-68
2022/06/17 01:39:28;;;;;;;7.40;6.80;;;17.50;98.40;;;;;;5116123;27;20249;-68
2022/06/17 01:41:54;;;;;;;7.60;7.10;;;17.50;98.30;;;;;;5112173;28;20516;-68
2022/06/17 01:44:25;;;;;;;7.13;6.73;;;17.50;98.30;;;;;;5102425;28;20177;-68
2022/06/17 01:46:55;;;;;;;6.93;6.43;;;17.40;98.20;;;;;;5107537;28;20665;-68
2022/06/17 01:49:33;;;;;;;6.40;6.00;;;17.40;98.30;;;;;;5116002;27;20484;-68
2022/06/17 01:52:12;;;;;;;6.73;6.03;;;17.40;98.40;;;;;;5109552;27;20432;-68
2022/06/17 01:54:50;;;;;;;6.40;6.03;;;17.30;98.40;;;;;;5131546;27;20432;-71
2022/06/17 01:57:20;;;;;;;7.07;6.57;;;17.30;98.50;;;;;;5117472;27;20437;-68
2022/06/17 01:59:51;;;;;;;8.50;7.80;;;17.30;98.30;;;;;;5110733;28;20479;-68
2022/06/17 02:02:18;;;;;;;8.50;7.90;;;17.20;98.10;;;;;;5129906;27;20425;-68
2022/06/17 02:04:48;;;;;;;8.93;8.23;;;17.10;98.30;;;;;;5130968;27;20533;-68
2022/06/17 02:07:17;;;;;;;8.53;7.73;;;17.10;98.60;;;;;;5125768;27;20433;-68
2022/06/17 02:09:44;;;;;;;7.80;7.20;;;17.10;98.80;;;;;;5124772;28;20581;-68
2022/06/17 02:12:11;;;;;;;8.67;7.37;;;17.10;98.90;;;;;;5130648;28;20433;-68
2022/06/17 02:14:38;;;;;;;7.93;7.43;;;17.10;98.80;;;;;;5125997;28;20428;-70
2022/06/17 02:17:04;;;;;;;8.97;8.27;;;17.10;98.90;;;;;;5126273;28;20452;-70
2022/06/17 02:19:34;;;;;;;9.10;8.30;;;17.10;99.10;;;;;;5115623;28;20477;-68
2022/06/17 02:22:04;;;;;;;7.77;7.17;;;17.20;99.30;;;;;;5120312;28;20452;-68
2022/06/17 02:24:30;;;;;;;7.83;7.33;;;17.20;99.10;;;;;;5119644;28;20442;-68
2022/06/17 02:27:00;;;;;;;8.40;7.27;;;17.20;99.60;;;;;;5125009;28;20434;-68
2022/06/17 02:29:28;;;;;;;9.33;8.30;;;17.30;99.90;;;;;;5116076;28;20460;-68
2022/06/17 02:31:55;;;;;;;7.50;7.00;;;17.30;99.60;;;;;;5130182;27;20433;-68
2022/06/17 02:34:21;;;;;;;7.80;7.30;;;17.30;99.20;;;;;;5131448;28;20428;-68
2022/06/17 02:36:56;;;;;;;8.13;7.53;;;17.30;99.20;;;;;;5128530;28;20429;-70
2022/06/17 02:39:22;;;;;;;8.20;7.70;;;17.30;99.00;;;;;;5122580;28;20776;-68
2022/06/17 02:41:50;;;;;;;8.57;7.70;;;17.20;98.90;;;;;;5130569;28;20511;-67
2022/06/17 02:44:24;;;;;;;8.10;7.50;;;17.20;99.10;;;;;;5131480;28;20473;-68
2022/06/17 02:46:52;;;;;;;7.90;7.40;;;17.20;99.10;;;;;;5114469;28;20994;-69
2022/06/17 02:49:22;;;;;;;8.07;7.47;;;17.20;99.00;;;;;;5124370;28;20480;-68
2022/06/17 02:51:49;;;;;;;7.93;7.40;;;17.20;99.00;;;;;;5129438;27;20440;-68
2022/06/17 02:54:42;;;;;;;7.57;6.97;;;17.20;99.30;;;;;;5122100;27;20447;-68
2022/06/17 02:57:18;;;;;;;8.80;8.10;;;17.20;99.30;;;;;;5130237;27;21364;-68
2022/06/17 02:59:50;;;;;;;7.70;7.10;;;17.10;99.20;;;;;;5114877;27;20519;-69
2022/06/17 03:02:34;;;;;;;7.80;7.20;;;17.10;99.10;;;;;;5126015;27;20757;-68
2022/06/17 03:05:02;;;;;;;8.37;7.57;;;17.00;99.20;;;;;;5133530;27;20625;-68
2022/06/17 03:07:30;;;;;;;7.90;7.20;;;17.00;99.20;;;;;;5128528;27;20425;-69
2022/06/17 03:09:56;;;;;;;8.07;7.47;;;17.00;99.30;;;;;;5124525;27;20528;-68
2022/06/17 03:12:26;;;;;;;8.13;7.30;;;17.00;99.30;;;;;;5136403;27;20516;-68
2022/06/17 03:15:06;;;;;;;7.50;6.83;;;16.90;99.30;;;;;;5129338;27;20175;-68
2022/06/17 03:17:37;;;;;;;7.80;7.10;;;16.90;99.70;;;;;;5128093;27;20433;-68
2022/06/17 03:20:05;;;;;;;7.47;6.77;;;16.90;99.80;;;;;;5109316;27;20488;-68
2022/06/17 03:22:31;;;;;;;7.80;7.20;;;16.90;99.80;;;;;;5119070;27;20426;-68
2022/06/17 03:25:24;;;;;;;8.10;7.60;;;16.90;99.50;;;;;;5132966;27;20447;-68
2022/06/17 03:27:55;;;;;;;8.17;7.37;;;16.90;99.60;;;;;;5125320;27;20867;-68
2022/06/17 03:30:26;;;;;;;7.73;7.13;;;16.90;99.80;;;;;;5120483;27;20878;-68
2022/06/17 03:33:07;;;;;;;7.90;7.30;;;16.90;99.90;;;;;;5133808;27;20436;-68
2022/06/17 03:35:35;;;;;;;8.20;7.60;;;16.90;99.90;;;;;;5134564;27;20514;-68
2022/06/17 03:38:18;;;;;;;8.80;8.10;;;16.90;99.90;;;;;;5122682;27;20638;-70
2022/06/17 03:40:50;;;;;;;8.00;7.40;;;16.90;99.90;;;;;;5097546;28;20474;-69
2022/06/17 03:43:19;;;;;;;8.87;8.00;;;16.90;99.90;;;;;;5107755;27;20414;-68
2022/06/17 03:45:50;;;;;;;8.50;7.70;;;16.90;99.90;;;;;;5120065;27;20472;-71
2022/06/17 03:48:23;;;;;;;9.37;8.67;;;16.90;99.90;;;;;;5119111;27;20882;-69
2022/06/17 03:50:49;;;;;;;8.73;8.17;;;16.90;99.90;;;;;;5109198;27;20464;-68
2022/06/17 03:53:23;;;;;;;8.57;7.90;;;16.90;99.90;;;;;;5126530;27;20430;-68
2022/06/17 03:55:51;;;;;;;9.77;8.80;;;16.80;99.90;;;;;;5122981;27;20441;-68
2022/06/17 03:58:18;;;;;;;9.60;8.70;;;16.80;99.90;;;;;;5132919;27;20841;-68
2022/06/17 04:01:12;;;;;;;9.00;8.27;;;16.90;99.90;;;;;;5110591;27;20470;-71
2022/06/17 04:03:42;;;;;;;9.30;8.50;;;16.90;99.90;;;;;;5114621;27;20839;-69
2022/06/17 04:06:15;;;;;;;8.87;8.27;;;16.90;99.90;;;;;;5099824;27;20428;-68
2022/06/17 04:08:59;;;;;;;9.30;8.60;;;16.90;99.90;;;;;;5135754;27;20452;-68
2022/06/17 04:11:32;;;;;;;10.20;9.30;;;16.90;99.60;;;;;;5122916;27;20472;-68
2022/06/17 04:14:01;;;;;;;11.17;10.20;;;16.90;99.60;;;;;;5116152;27;20464;-68
2022/06/17 04:17:04;;;;;;;9.63;8.93;;;17.00;99.80;;;;;;5121349;27;20834;-68
2022/06/17 04:19:30;;;;;;;9.40;8.50;;;17.00;99.90;;;;;;5107085;27;20522;-68
2022/06/17 04:22:23;;;;;;;10.27;8.93;;;17.00;99.90;;;;;;5124224;27;20461;-68
2022/06/17 04:24:55;;;;;;;9.10;8.40;;;17.00;99.90;;;;;;5103733;28;20441;-69
2022/06/17 04:27:22;;;;;;;9.63;8.83;;;17.10;99.90;;;;;;5128966;27;20443;-68
2022/06/17 04:29:51;;;;;;;9.40;8.60;;;17.10;99.90;;;;;;5130862;27;20448;-70
2022/06/17 04:32:32;;;;;;;11.17;8.23;;;17.20;99.90;;;;;;5133390;27;20432;-68
2022/06/17 04:34:59;;;;;;;8.00;7.40;;;17.20;99.90;;;;;;5117676;27;20436;-68
2022/06/17 04:37:26;;;;;;;7.87;7.30;;;17.30;99.90;;;;;;5108124;27;20434;-68
2022/06/17 04:39:54;;;;;;;8.07;7.30;;;17.30;99.90;;;;;;5136649;27;20433;-69
2022/06/17 04:42:27;;;;;;;8.17;7.57;;;17.30;99.90;;;;;;5128253;27;20448;-68
2022/06/17 04:44:53;;;;;;;8.43;7.63;;;17.40;99.90;;;;;;5109467;27;20425;-68
2022/06/17 04:47:20;;;;;;;8.60;7.80;;;17.40;99.90;;;;;;5110480;27;20431;-69
2022/06/17 04:49:55;;;;;;;8.13;7.43;;;17.50;99.90;;;;;;5113780;27;20216;-71
2022/06/17 04:52:28;;;;;;;8.40;7.63;;;17.50;99.90;;;;;;5097607;28;20454;-68
2022/06/17 04:54:57;;;;;;;9.37;8.60;;;17.60;99.90;;;;;;5103126;28;20438;-69
2022/06/17 04:57:23;;;;;;;8.63;7.93;;;17.60;99.90;;;;;;5109589;28;20424;-68
2022/06/17 04:59:49;;;;;;;9.13;8.33;;;17.60;99.90;;;;;;5113635;28;20408;-69
2022/06/17 05:02:17;;;;;;;8.93;8.03;;;17.70;99.90;;;;;;5124989;27;20773;-68
2022/06/17 05:04:44;;;;;;;8.23;7.63;;;17.70;99.90;;;;;;5117627;27;20654;-68
2022/06/17 05:07:10;;;;;;;8.90;8.10;;;17.70;99.90;;;;;;5113558;28;20434;-68
2022/06/17 05:09:42;;;;;;;8.27;7.53;;;17.70;99.90;;;;;;5113972;28;20445;-68
2022/06/17 05:12:16;;;;;;;8.87;8.17;;;17.80;99.90;;;;;;5101033;28;20658;-68
2022/06/17 05:14:53;;;;;;;8.37;7.77;;;17.70;99.90;;;;;;5106899;28;20473;-68
2022/06/17 05:17:20;;;;;;;8.67;7.90;;;17.70;99.90;;;;;;5122397;27;20753;-68
2022/06/17 05:19:45;;;;;;;8.10;7.50;;;17.80;99.90;;;;;;5117453;27;20448;-68
2022/06/17 05:22:34;;;;;;;8.77;7.97;;;17.80;99.90;;;;;;5114402;27;20455;-68
2022/06/17 05:25:04;;;;;;;9.47;8.23;;;17.80;99.90;;;;;;5114154;27;20195;-68
2022/06/17 05:27:29;;;;;;;9.00;8.20;;;17.80;99.90;;;;;;5133657;27;20409;-68
2022/06/17 05:29:55;;;;;;;10.33;9.43;;;17.90;99.90;;;;;;5123553;27;20433;-68
2022/06/17 05:32:22;;;;;;;11.13;10.13;;;17.90;99.90;;;;;;5133820;27;20254;-68
2022/06/17 05:34:48;;;;;;;8.60;7.90;;;17.90;99.90;;;;;;5124899;27;20223;-69
2022/06/17 05:37:15;;;;;;;10.33;9.50;;;18.00;99.90;;;;;;5133158;27;20420;-69
2022/06/17 05:39:41;;;;;;;10.37;9.30;;;18.10;99.90;;;;;;5123881;27;20441;-71
2022/06/17 05:42:09;;;;;;;11.23;8.43;;;18.10;99.90;;;;;;5122274;27;20425;-68
2022/06/17 05:44:35;;;;;;;9.47;8.70;;;18.10;99.90;;;;;;5119908;27;20468;-68
2022/06/17 05:47:01;;;;;;;10.27;9.37;;;18.20;99.90;;;;;;5112085;28;20916;-68
2022/06/17 05:49:26;;;;;;;9.00;8.40;;;18.30;99.50;;;;;;5128965;27;20211;-68
2022/06/17 05:51:52;;;;;;;8.43;7.60;;;18.40;99.90;;;;;;5132725;27;20551;-72
2022/06/17 05:54:18;;;;;;;9.20;8.33;;;18.40;99.90;;;;;;5122132;27;20638;-70
2022/06/17 05:56:44;;;;;;;7.57;6.97;;;18.50;99.80;;;;;;5124029;27;20685;-69
2022/06/17 05:59:10;;;;;;;8.33;7.83;;;18.70;99.90;;;;;;5133213;27;20496;-68
2022/06/17 06:01:36;;;;;;;8.10;7.40;;;18.70;99.90;;;;;;5125837;27;20611;-68
2022/06/17 06:04:03;;;;;;;8.47;7.87;;;18.80;99.90;;;;;;5124546;27;20448;-68
2022/06/17 06:06:28;;;;;;;7.80;7.20;;;19.00;99.70;;;;;;5110897;28;20433;-69
2022/06/17 06:08:54;;;;;;;8.30;7.60;;;19.10;99.60;;;;;;5119421;27;20453;-69
2022/06/17 06:11:20;;;;;;;7.57;6.97;;;19.20;99.10;;;;;;5109396;28;20181;-69
2022/06/17 06:13:46;;;;;;;6.90;6.40;;;19.30;97.80;;;;;;5125080;28;20672;-69
2022/06/17 06:16:13;;;;;;;7.53;6.93;;;19.40;98.40;;;;;;5132931;28;20170;-69
2022/06/17 06:18:39;;;;;;;8.10;7.50;;;19.50;97.70;;;;;;5131755;28;20182;-69
2022/06/17 06:21:06;;;;;;;7.50;6.90;;;19.60;98.00;;;;;;5112131;28;20801;-69
2022/06/17 06:23:38;;;;;;;6.90;6.40;;;19.70;97.70;;;;;;5112110;28;20493;-68
2022/06/17 06:26:07;;;;;;;7.70;7.10;;;19.70;96.90;;;;;;5130753;27;20991;-69
2022/06/17 06:28:34;;;;;;;8.80;7.40;;;19.80;97.80;;;;;;5137685;27;20436;-68
2022/06/17 06:31:05;;;;;;;7.40;6.90;;;19.90;98.20;;;;;;5116116;27;20426;-69
2022/06/17 06:33:31;;;;;;;7.10;6.50;;;20.00;98.10;;;;;;5111122;28;20429;-69
2022/06/17 06:35:57;;;;;;;7.70;7.20;;;20.10;98.00;;;;;;5116500;28;20411;-69
2022/06/17 06:38:22;;;;;;;11.90;7.37;;;20.20;97.60;;;;;;5115462;27;20224;-70
2022/06/17 06:40:48;;;;;;;7.63;7.03;;;20.30;97.20;;;;;;5106634;27;20176;-70
2022/06/17 06:43:17;;;;;;;7.93;7.20;;;20.40;97.30;;;;;;5109604;27;20184;-71
2022/06/17 06:45:44;;;;;;;8.07;7.30;;;20.50;96.60;;;;;;5111197;27;20212;-71
2022/06/17 06:48:12;;;;;;;7.50;6.90;;;20.60;97.20;;;;;;5101641;28;20566;-70
2022/06/17 06:50:39;;;;;;;7.27;6.87;;;20.70;97.40;;;;;;5102547;28;20442;-71
2022/06/17 06:53:06;;;;;;;6.60;6.10;;;20.70;97.40;;;;;;5111068;28;20429;-71
2022/06/17 06:55:34;;;;;;;7.27;6.57;;;20.80;96.30;;;;;;5116066;28;20406;-70
2022/06/17 06:58:18;;;;;;;8.07;6.40;;;20.90;96.00;;;;;;5111528;28;20463;-71
2022/06/17 07:00:46;;;;;;;7.00;6.50;;;21.10;96.10;;;;;;5101728;28;20437;-70
2022/06/17 07:03:12;;;;;;;8.00;7.50;;;21.20;94.50;;;;;;5111203;27;20524;-70
2022/06/17 07:05:41;;;;;;;6.97;6.27;;;21.30;94.70;;;;;;5114616;28;20451;-70
2022/06/17 07:08:09;;;;;;;7.27;6.60;;;21.30;94.60;;;;;;5114727;28;20500;-70
2022/06/17 07:10:36;;;;;;;5.87;5.57;;;21.50;94.30;;;;;;5115300;28;20425;-70
2022/06/17 07:13:02;;;;;;;5.70;5.30;;;21.60;94.60;;;;;;5111924;28;20852;-70
2022/06/17 07:15:29;;;;;;;5.60;5.30;;;21.80;94.90;;;;;;5101926;27;21042;-70
2022/06/17 07:18:05;;;;;;;6.60;6.10;;;21.80;93.00;;;;;;5098357;28;20437;-73
2022/06/17 07:20:38;;;;;;;5.50;5.10;;;21.90;93.00;;;;;;5113758;27;20829;-70
2022/06/17 07:23:17;;;;;;;7.97;5.77;;;22.10;92.40;;;;;;5113479;27;20447;-70
2022/06/17 07:25:44;;;;;;;6.27;5.77;;;22.20;92.10;;;;;;5135401;28;20389;-72
2022/06/17 07:28:15;;;;;;;7.10;6.50;;;22.30;91.60;;;;;;5132939;28;20488;-70
2022/06/17 07:30:44;;;;;;;10.10;9.10;;;22.40;91.80;;;;;;5117061;28;20973;-67
2022/06/17 07:33:11;;;;;;;5.97;5.37;;;22.60;94.60;;;;;;5105263;28;21897;-69
2022/06/17 07:35:37;;;;;;;6.07;5.50;;;22.80;92.90;;;;;;5121789;28;20464;-68
2022/06/17 07:40:49;;;;;;;7.20;5.47;;;23.10;93.10;;;;;;5107203;28;20852;-70
2022/06/17 07:43:18;;;;;;;6.07;5.50;;;23.20;92.30;;;;;;5099639;28;20825;-69
2022/06/17 07:45:44;;;;;;;5.00;4.60;;;23.20;90.80;;;;;;5103500;28;20461;-69
2022/06/17 07:48:12;;;;;;;19.80;15.43;;;23.30;88.70;;;;;;5100811;28;20471;-66
2022/06/17 07:50:38;;;;;;;14.73;12.00;;;23.30;93.30;;;;;;5113966;28;20424;-66
2022/06/17 07:53:04;;;;;;;7.30;6.70;;;23.40;93.00;;;;;;5112479;28;20447;-66
2022/06/17 07:55:30;;;;;;;6.27;5.80;;;23.40;90.60;;;;;;5114667;28;20417;-66
2022/06/17 07:57:56;;;;;;;6.63;5.87;;;23.40;87.10;;;;;;5113753;28;20405;-66
2022/06/17 08:00:24;;;;;;;5.77;5.37;;;23.40;85.60;;;;;;5048839;28;20184;-66
2022/06/17 08:02:50;;;;;;;10.10;9.23;;;23.50;84.40;;;;;;5111168;28;20425;-66
2022/06/17 08:05:17;;;;;;;5.83;5.43;;;23.60;89.50;;;;;;5109822;28;20429;-66
2022/06/17 08:07:43;;;;;;;5.13;4.73;;;23.70;89.60;;;;;;5115152;28;20172;-66
2022/06/17 08:10:14;;;;;;;5.40;5.00;;;23.60;80.60;;;;;;5109415;28;20434;-66
2022/06/17 08:12:40;;;;;;;5.10;4.60;;;23.60;75.00;;;;;;5111770;28;20183;-66
2022/06/17 08:15:06;;;;;;;4.73;4.53;;;23.60;76.20;;;;;;5113200;28;20421;-66
2022/06/17 08:17:32;;;;;;;5.27;4.73;;;23.60;76.30;;;;;;5112457;28;20635;-66
2022/06/17 08:19:58;;;;;;;4.97;4.60;;;23.50;75.90;;;;;;5073918;27;1104196;-69
2022/06/17 08:22:25;;;;;;;4.77;4.47;;;23.60;76.60;;;;;;5113381;28;20179;-67
2022/06/17 08:24:56;;;;;;;4.20;4.00;;;23.60;74.20;;;;;;5113106;28;20512;-65
2022/06/17 08:27:22;;;;;;;4.47;4.17;;;23.60;73.40;;;;;;5113820;28;20413;-65
2022/06/17 08:29:48;;;;;;;3.83;3.63;;;23.80;77.60;;;;;;5114164;28;20468;-66
2022/06/17 08:34:59;;;;;;;5.23;4.93;;;24.10;79.40;;;;;;5109017;27;20167;-69
2022/06/17 08:37:25;;;;;;;5.90;5.40;;;24.10;74.70;;;;;;5111165;27;20474;-66
2022/06/17 08:39:52;;;;;;;36.47;28.40;;;23.90;74.60;;;;;;5113115;28;20405;-66
2022/06/17 08:42:37;;;;;;;6.63;6.20;;;24.00;72.40;;;;;;5111964;27;20175;-66
2022/06/17 08:45:22;;;;;;;5.07;4.83;;;23.90;72.30;;;;;;5110304;28;20904;-66
2022/06/17 08:48:29;;;;;;;18.57;14.67;;;24.10;73.10;;;;;;5104792;27;20440;-66
2022/06/17 08:50:57;;;;;;;4.90;4.50;;;24.30;76.10;;;;;;5054179;28;20449;-66
2022/06/17 08:53:53;;;;;;;5.37;5.00;;;24.50;71.80;;;;;;5113101;28;20434;-66
2022/06/17 08:56:29;;;;;;;6.90;6.30;;;24.50;69.00;;;;;;5112822;28;20390;-68
2022/06/17 08:59:27;;;;;;;4.97;4.60;;;24.40;70.20;;;;;;5107990;28;20485;-66
2022/06/17 09:02:19;;;;;;;5.27;4.77;;;24.70;74.00;;;;;;5079530;28;20421;-66
2022/06/17 09:04:54;;;;;;;4.67;4.37;;;24.90;75.70;;;;;;5114051;28;20779;-66
2022/06/17 09:07:20;;;;;;;5.30;5.00;;;24.90;69.30;;;;;;5112302;28;20497;-66
2022/06/17 09:10:06;;;;;;;5.20;4.77;;;25.00;73.20;;;;;;5113359;28;20449;-66
2022/06/17 09:13:11;;;;;;;4.80;4.50;;;25.20;73.10;;;;;;5114043;28;20164;-66
2022/06/17 09:15:41;;;;;;;5.30;5.00;;;25.10;71.40;;;;;;5113684;28;20478;-66
2022/06/17 09:18:41;;;;;;;5.17;4.63;;;25.20;72.00;;;;;;5112339;28;20472;-67
2022/06/17 09:21:13;;;;;;;4.70;4.40;;;25.40;71.00;;;;;;5109620;28;20817;-66
2022/06/17 09:23:40;;;;;;;4.50;4.30;;;25.50;70.80;;;;;;5113824;28;20406;-66
2022/06/17 09:26:29;;;;;;;5.20;4.80;;;25.70;73.30;;;;;;5113142;28;20764;-67
2022/06/17 09:29:01;;;;;;;4.73;4.43;;;25.80;68.90;;;;;;5113008;28;20852;-66
2022/06/17 09:31:33;;;;;;;4.70;4.30;;;25.60;65.00;;;;;;5112509;28;20424;-67
2022/06/17 09:34:09;;;;;;;4.50;4.20;;;25.70;67.80;;;;;;5113421;28;20492;-66
2022/06/17 09:36:44;;;;;;;4.10;3.90;;;25.90;71.80;;;;;;5112907;28;20405;-67
2022/06/17 09:39:17;;;;;;;4.27;4.00;;;25.80;64.10;;;;;;5091263;28;20410;-66
2022/06/17 09:42:02;;;;;;;48.97;41.17;;;25.70;65.00;;;;;;5107601;28;20408;-65
2022/06/17 09:44:43;;;;;;;35.20;31.77;;;25.60;66.30;;;;;;5113497;28;20414;-66
2022/06/17 09:47:32;;;;;;;34.97;29.80;;;25.30;66.30;;;;;;5111738;28;20417;-66
2022/06/17 09:50:09;;;;;;;54.77;48.37;;;25.40;67.10;;;;;;5111861;28;20445;-66
2022/06/17 09:53:04;;;;;;;5.80;5.50;;;25.30;69.50;;;;;;5113409;28;20401;-66
2022/06/17 09:55:41;;;;;;;10.23;9.33;;;25.30;67.30;;;;;;5090522;28;20421;-66
2022/06/17 09:58:28;;;;;;;5.10;4.70;;;25.30;66.20;;;;;;5111855;28;20436;-66
2022/06/17 10:00:55;;;;;;;4.17;3.97;;;25.50;67.80;;;;;;5113228;28;20423;-65
2022/06/17 10:03:25;;;;;;;3.80;3.60;;;25.60;65.90;;;;;;5112271;28;20968;-66
2022/06/17 10:06:24;;;;;;;5.03;4.53;;;25.80;65.60;;;;;;5113131;28;20414;-65
2022/06/17 10:08:55;;;;;;;4.47;4.07;;;25.80;62.60;;;;;;5112268;28;20457;-65
2022/06/17 10:11:38;;;;;;;3.90;3.70;;;25.80;65.20;;;;;;5124002;27;20443;-65
2022/06/17 10:14:28;;;;;;;4.33;4.13;;;25.90;64.20;;;;;;5111433;28;20464;-68
2022/06/17 10:20:07;;;;;;;4.70;4.30;;;26.30;64.90;;;;;;5110066;28;20824;-65
2022/06/17 10:22:51;;;;;;;4.17;3.87;;;26.40;64.60;;;;;;5111498;28;20488;-66
2022/06/17 10:25:47;;;;;;;4.50;4.20;;;26.50;61.50;;;;;;5130682;28;20423;-66
2022/06/17 10:28:22;;;;;;;4.30;4.00;;;26.60;61.60;;;;;;5115103;28;20457;-66
2022/06/17 10:30:56;;;;;;;3.90;3.80;;;26.70;61.60;;;;;;5107997;28;20539;-66
2022/06/17 10:33:23;;;;;;;3.73;3.43;;;26.80;60.90;;;;;;5112349;28;20787;-66
2022/06/17 10:35:50;;;;;;;3.70;3.50;;;27.00;60.60;;;;;;5106269;28;20425;-68
2022/06/17 10:38:20;;;;;;;3.83;3.53;;;27.10;57.80;;;;;;5107735;28;20444;-66
2022/06/17 10:40:47;;;;;;;5.33;3.93;;;27.30;58.90;;;;;;5109199;28;20903;-66
2022/06/17 10:43:20;;;;;;;145.40;130.10;;;27.40;59.00;;;;;;5128953;28;20408;-66
2022/06/17 10:45:47;;;;;;;17.50;15.80;;;27.50;59.30;;;;;;5109485;28;20437;-66
2022/06/17 10:48:34;;;;;;;5.53;5.23;;;27.60;58.00;;;;;;5122898;28;20466;-68
2022/06/17 10:51:01;;;;;;;4.60;4.30;;;27.70;60.30;;;;;;5096006;28;20818;-66
2022/06/17 10:53:46;;;;;;;4.33;3.93;;;27.80;58.30;;;;;;5118090;28;20484;-66
2022/06/17 10:56:36;;;;;;;4.27;4.07;;;27.80;57.80;;;;;;5120499;28;20935;-66
2022/06/17 10:59:10;;;;;;;4.87;4.50;;;27.90;59.40;;;;;;5122191;28;20784;-66
2022/06/17 11:02:03;;;;;;;4.87;4.57;;;28.10;59.10;;;;;;5114596;28;20908;-66
2022/06/17 11:04:34;;;;;;;6.97;5.40;;;28.20;59.80;;;;;;5105165;28;20925;-66
2022/06/17 11:07:13;;;;;;;5.00;4.70;;;28.40;59.80;;;;;;5104858;28;20420;-66
2022/06/17 11:09:48;;;;;;;4.30;4.10;;;28.50;58.80;;;;;;5107504;28;20461;-66
2022/06/17 11:12:27;;;;;;;4.27;3.63;;;28.40;55.90;;;;;;5101406;28;20528;-66
2022/06/17 11:15:03;;;;;;;3.20;3.00;;;28.10;57.60;;;;;;5099688;28;20675;-66
2022/06/17 11:17:39;;;;;;;4.20;3.90;;;27.90;54.10;;;;;;5098052;28;20523;-67
2022/06/17 11:20:25;;;;;;;4.10;3.90;;;28.00;54.50;;;;;;5104786;27;20964;-66
2022/06/17 11:22:58;;;;;;;4.30;4.10;;;27.70;53.20;;;;;;5114293;28;20433;-69
2022/06/17 11:25:35;;;;;;;4.10;3.90;;;27.40;54.70;;;;;;5101569;28;20430;-66
2022/06/17 11:28:22;;;;;;;3.90;3.70;;;27.60;57.10;;;;;;5113947;27;20499;-67
2022/06/17 11:31:04;;;;;;;4.23;3.93;;;27.60;57.70;;;;;;5119115;27;20515;-67
2022/06/17 11:33:54;;;;;;;4.63;4.33;;;27.80;58.50;;;;;;5115437;28;20409;-67
2022/06/17 11:36:33;;;;;;;3.80;3.60;;;27.90;59.10;;;;;;5113611;28;20508;-66
2022/06/17 11:39:28;;;;;;;3.93;3.63;;;28.10;57.40;;;;;;5098328;28;20445;-66
2022/06/17 11:41:54;;;;;;;4.13;3.70;;;28.10;54.90;;;;;;5130138;27;20434;-66
2022/06/17 11:44:21;;;;;;;3.80;3.50;;;27.50;54.80;;;;;;5095510;28;20840;-65
2022/06/17 11:46:55;;;;;;;4.20;3.90;;;27.40;54.50;;;;;;5114920;28;20900;-66
2022/06/17 11:49:22;;;;;;;3.40;3.30;;;27.60;56.80;;;;;;5115028;27;20460;-65
2022/06/17 11:52:01;;;;;;;2.90;2.80;;;27.60;53.80;;;;;;5126694;27;20869;-65
2022/06/17 11:54:32;;;;;;;3.20;3.10;;;27.50;54.00;;;;;;5103846;28;20430;-67
2022/06/17 11:57:11;;;;;;;3.30;3.10;;;27.70;53.70;;;;;;5101610;27;20437;-67
2022/06/17 11:59:45;;;;;;;2.87;2.77;;;27.70;53.00;;;;;;5117235;27;20503;-67
2022/06/17 12:02:11;;;;;;;3.53;3.33;;;27.70;54.90;;;;;;5117445;27;20458;-70
2022/06/17 12:04:50;;;;;;;3.60;3.20;;;27.50;53.60;;;;;;5106796;27;20417;-67
2022/06/17 12:07:48;;;;;;;3.13;2.93;;;27.50;54.40;;;;;;5093629;28;20781;-67
2022/06/17 12:10:25;;;;;;;4.00;3.73;;;27.50;56.50;;;;;;5109583;28;20442;-70
2022/06/17 12:12:56;;;;;;;3.17;2.90;;;27.60;55.30;;;;;;5121909;27;20429;-67
2022/06/17 12:15:34;;;;;;;2.90;2.80;;;27.70;55.50;;;;;;5133111;27;20454;-67
2022/06/17 12:18:02;;;;;;;2.83;2.73;;;27.80;54.10;;;;;;5118738;27;20437;-67
2022/06/17 12:20:50;;;;;;;3.10;2.90;;;27.80;54.30;;;;;;5108580;28;20507;-67
2022/06/17 12:23:29;;;;;;;3.13;3.03;;;27.90;54.50;;;;;;5119598;27;20467;-70
2022/06/17 12:26:01;;;;;;;3.93;3.53;;;28.00;53.60;;;;;;5114342;28;20405;-67
2022/06/17 12:28:52;;;;;;;3.17;3.07;;;28.00;53.60;;;;;;5110992;27;20949;-67
2022/06/17 12:31:42;;;;;;;3.00;2.90;;;28.10;53.00;;;;;;5101794;28;20883;-67
2022/06/17 12:34:23;;;;;;;3.90;3.70;;;28.20;53.90;;;;;;5129389;27;20761;-67
2022/06/17 12:36:53;;;;;;;3.10;2.90;;;28.30;54.30;;;;;;5119943;27;20421;-67
2022/06/17 12:39:28;;;;;;;3.20;2.80;;;28.10;52.60;;;;;;5110172;28;20463;-67
2022/06/17 12:42:13;;;;;;;3.90;3.70;;;27.90;51.40;;;;;;5064768;27;20427;-67
2022/06/17 12:44:57;;;;;;;3.07;2.93;;;28.10;55.90;;;;;;5132975;27;20401;-69
2022/06/17 12:47:43;;;;;;;3.40;3.30;;;28.20;54.30;;;;;;5108832;28;20436;-67
2022/06/17 12:53:41;;;;;;;3.63;3.40;;;28.30;55.80;;;;;;5111834;28;20413;-66
2022/06/17 12:56:10;;;;;;;3.30;3.10;;;28.10;55.00;;;;;;5105390;28;20932;-65
2022/06/17 12:59:18;;;;;;;3.00;2.80;;;28.00;52.30;;;;;;5112067;28;20475;-65
2022/06/17 13:02:03;;;;;;;3.70;3.50;;;28.00;56.10;;;;;;5099669;28;20444;-66
2022/06/17 13:05:09;;;;;;;3.13;2.93;;;28.10;54.50;;;;;;5095811;28;20432;-67
2022/06/17 13:08:19;;;;;;;3.20;3.10;;;28.20;53.00;;;;;;5104008;28;20424;-67
2022/06/17 13:11:08;;;;;;;2.97;2.87;;;28.30;55.20;;;;;;5020787;28;20475;-66
2022/06/17 13:13:42;;;;;;;3.00;2.80;;;28.40;57.10;;;;;;5099036;27;20905;-67
2022/06/17 13:16:26;;;;;;;3.70;3.50;;;28.40;51.00;;;;;;5138586;27;20446;-65
2022/06/17 13:19:25;;;;;;;2.80;2.70;;;28.40;53.00;;;;;;5126645;27;20440;-65
2022/06/17 13:22:14;;;;;;;2.13;2.00;;;28.40;49.60;;;;;;5126394;27;20473;-66
2022/06/17 13:25:02;;;;;;;2.50;2.40;;;28.40;50.00;;;;;;5110026;27;20443;-66
2022/06/17 13:27:38;;;;;;;2.77;2.67;;;28.50;50.10;;;;;;5140651;27;20508;-66
2022/06/17 13:30:13;;;;;;;3.10;2.80;;;28.60;51.30;;;;;;5095127;28;20550;-65
2022/06/17 13:32:45;;;;;;;2.60;2.50;;;28.80;51.30;;;;;;5120448;27;20424;-65